sensor_id;sensor_type;location;lat;lon;timestamp;P1;durP1;ratioP1;P2;durP2;ratioP2
72575;SDS011;60613;48.658;2.328;2023-03-14T00:02:16;7.53;;;1.05;;
72575;SDS011;60613;48.658;2.328;2023-03-14T00:04:42;6.30;;;1.40;;
72575;SDS011;60613;48.658;2.328;2023-03-14T00:07:09;5.60;;;1.38;;
72575;SDS011;60613;48.658;2.328;2023-03-14T00:09:36;5.25;;;0.90;;
72575;SDS011;60613;48.658;2.328;2023-03-14T00:12:02;5.40;;;1.07;;
72575;SDS011;60613;48.658;2.328;2023-03-14T00:14:28;6.30;;;1.15;;
72575;SDS011;60613;48.658;2.328;2023-03-14T00:16:54;5.43;;;1.02;;
72575;SDS011;60613;48.658;2.328;2023-03-14T00:19:20;4.83;;;0.97;;
72575;SDS011;60613;48.658;2.328;2023-03-14T00:21:46;4.50;;;0.80;;
72575;SDS011;60613;48.658;2.328;2023-03-14T00:24:12;5.28;;;1.10;;
72575;SDS011;60613;48.658;2.328;2023-03-14T00:26:37;6.75;;;1.20;;
72575;SDS011;60613;48.658;2.328;2023-03-14T00:29:03;5.07;;;1.00;;
72575;SDS011;60613;48.658;2.328;2023-03-14T00:31:29;4.45;;;0.90;;
72575;SDS011;60613;48.658;2.328;2023-03-14T00:33:54;5.10;;;1.00;;
72575;SDS011;60613;48.658;2.328;2023-03-14T00:36:20;5.72;;;0.90;;
72575;SDS011;60613;48.658;2.328;2023-03-14T00:38:47;4.50;;;0.93;;
72575;SDS011;60613;48.658;2.328;2023-03-14T00:41:16;5.97;;;0.90;;
72575;SDS011;60613;48.658;2.328;2023-03-14T00:43:44;5.22;;;0.90;;
72575;SDS011;60613;48.658;2.328;2023-03-14T00:46:09;5.43;;;1.10;;
72575;SDS011;60613;48.658;2.328;2023-03-14T00:48:35;5.03;;;0.90;;
72575;SDS011;60613;48.658;2.328;2023-03-14T00:51:01;5.75;;;1.00;;
72575;SDS011;60613;48.658;2.328;2023-03-14T00:53:28;5.20;;;0.93;;
72575;SDS011;60613;48.658;2.328;2023-03-14T00:55:54;4.80;;;0.90;;
72575;SDS011;60613;48.658;2.328;2023-03-14T00:58:19;4.82;;;1.05;;
72575;SDS011;60613;48.658;2.328;2023-03-14T01:00:45;6.27;;;0.90;;
72575;SDS011;60613;48.658;2.328;2023-03-14T01:03:12;4.95;;;1.00;;
72575;SDS011;60613;48.658;2.328;2023-03-14T01:05:39;4.65;;;0.90;;
72575;SDS011;60613;48.658;2.328;2023-03-14T01:08:05;5.27;;;0.87;;
72575;SDS011;60613;48.658;2.328;2023-03-14T01:10:32;7.18;;;1.05;;
72575;SDS011;60613;48.658;2.328;2023-03-14T01:12:58;4.55;;;0.80;;
72575;SDS011;60613;48.658;2.328;2023-03-14T01:15:23;4.30;;;1.00;;
72575;SDS011;60613;48.658;2.328;2023-03-14T01:17:49;6.28;;;1.00;;
72575;SDS011;60613;48.658;2.328;2023-03-14T01:20:15;5.07;;;0.80;;
72575;SDS011;60613;48.658;2.328;2023-03-14T07:02:37;9.15;;;1.70;;
72575;SDS011;60613;48.658;2.328;2023-03-14T07:05:02;9.03;;;1.60;;
72575;SDS011;60613;48.658;2.328;2023-03-14T07:07:28;9.25;;;2.00;;
72575;SDS011;60613;48.658;2.328;2023-03-14T07:09:54;9.63;;;1.77;;
72575;SDS011;60613;48.658;2.328;2023-03-14T07:12:20;13.30;;;1.67;;
72575;SDS011;60613;48.658;2.328;2023-03-14T07:14:45;10.48;;;1.80;;
72575;SDS011;60613;48.658;2.328;2023-03-14T07:17:11;9.20;;;1.90;;
72575;SDS011;60613;48.658;2.328;2023-03-14T07:19:37;10.05;;;1.98;;
72575;SDS011;60613;48.658;2.328;2023-03-14T07:22:03;8.93;;;1.70;;
72575;SDS011;60613;48.658;2.328;2023-03-14T07:24:29;10.55;;;1.67;;
72575;SDS011;60613;48.658;2.328;2023-03-14T07:26:55;6.43;;;1.13;;
72575;SDS011;60613;48.658;2.328;2023-03-14T07:29:20;8.00;;;1.20;;
72575;SDS011;60613;48.658;2.328;2023-03-14T07:31:46;7.60;;;1.37;;
72575;SDS011;60613;48.658;2.328;2023-03-14T07:34:11;7.47;;;1.27;;
72575;SDS011;60613;48.658;2.328;2023-03-14T07:36:37;7.80;;;1.10;;
72575;SDS011;60613;48.658;2.328;2023-03-14T07:39:03;15.55;;;1.33;;
72575;SDS011;60613;48.658;2.328;2023-03-14T07:41:29;7.82;;;1.20;;
72575;SDS011;60613;48.658;2.328;2023-03-14T07:43:55;5.90;;;1.10;;
72575;SDS011;60613;48.658;2.328;2023-03-14T07:46:21;6.60;;;1.10;;
72575;SDS011;60613;48.658;2.328;2023-03-14T07:48:46;6.40;;;1.10;;
72575;SDS011;60613;48.658;2.328;2023-03-14T07:51:12;7.05;;;1.30;;
72575;SDS011;60613;48.658;2.328;2023-03-14T07:53:37;7.37;;;1.30;;
72575;SDS011;60613;48.658;2.328;2023-03-14T07:56:04;6.10;;;1.42;;
72575;SDS011;60613;48.658;2.328;2023-03-14T07:58:30;7.85;;;1.10;;
72575;SDS011;60613;48.658;2.328;2023-03-14T08:00:55;5.53;;;1.00;;
72575;SDS011;60613;48.658;2.328;2023-03-14T08:03:24;6.35;;;0.95;;
72575;SDS011;60613;48.658;2.328;2023-03-14T08:05:50;7.47;;;1.10;;
72575;SDS011;60613;48.658;2.328;2023-03-14T08:08:16;6.73;;;1.13;;
72575;SDS011;60613;48.658;2.328;2023-03-14T08:10:43;6.93;;;1.20;;
72575;SDS011;60613;48.658;2.328;2023-03-14T08:13:09;6.40;;;1.10;;
72575;SDS011;60613;48.658;2.328;2023-03-14T08:15:35;6.97;;;1.20;;
72575;SDS011;60613;48.658;2.328;2023-03-14T08:18:01;5.78;;;1.20;;
72575;SDS011;60613;48.658;2.328;2023-03-14T08:20:28;5.63;;;1.10;;
72575;SDS011;60613;48.658;2.328;2023-03-14T08:22:58;8.15;;;1.30;;
72575;SDS011;60613;48.658;2.328;2023-03-14T08:25:25;6.43;;;1.33;;
72575;SDS011;60613;48.658;2.328;2023-03-14T08:27:51;6.50;;;1.05;;
72575;SDS011;60613;48.658;2.328;2023-03-14T08:30:18;5.47;;;1.10;;
72575;SDS011;60613;48.658;2.328;2023-03-14T08:32:44;6.47;;;1.05;;
72575;SDS011;60613;48.658;2.328;2023-03-14T08:35:10;7.10;;;1.13;;
72575;SDS011;60613;48.658;2.328;2023-03-14T08:37:37;5.93;;;1.00;;
72575;SDS011;60613;48.658;2.328;2023-03-14T08:40:03;6.53;;;1.10;;
72575;SDS011;60613;48.658;2.328;2023-03-14T08:42:31;7.60;;;1.20;;
72575;SDS011;60613;48.658;2.328;2023-03-14T08:44:58;7.10;;;1.20;;
72575;SDS011;60613;48.658;2.328;2023-03-14T08:47:23;7.00;;;1.20;;
72575;SDS011;60613;48.658;2.328;2023-03-14T08:49:49;6.68;;;1.27;;
72575;SDS011;60613;48.658;2.328;2023-03-14T08:52:15;6.70;;;1.00;;
72575;SDS011;60613;48.658;2.328;2023-03-14T08:54:41;5.72;;;0.98;;
72575;SDS011;60613;48.658;2.328;2023-03-14T08:57:09;6.68;;;1.20;;
72575;SDS011;60613;48.658;2.328;2023-03-14T08:59:35;6.83;;;1.10;;
72575;SDS011;60613;48.658;2.328;2023-03-14T09:02:01;4.90;;;1.00;;
72575;SDS011;60613;48.658;2.328;2023-03-14T09:04:28;4.47;;;1.00;;
72575;SDS011;60613;48.658;2.328;2023-03-14T09:06:58;5.22;;;1.00;;
72575;SDS011;60613;48.658;2.328;2023-03-14T09:09:24;4.57;;;0.80;;
72575;SDS011;60613;48.658;2.328;2023-03-14T09:11:54;5.95;;;1.00;;
72575;SDS011;60613;48.658;2.328;2023-03-14T09:14:20;4.47;;;0.98;;
72575;SDS011;60613;48.658;2.328;2023-03-14T09:16:46;6.60;;;1.03;;
72575;SDS011;60613;48.658;2.328;2023-03-14T09:19:11;5.70;;;0.90;;
72575;SDS011;60613;48.658;2.328;2023-03-14T09:21:37;7.27;;;1.07;;
72575;SDS011;60613;48.658;2.328;2023-03-14T09:24:03;5.13;;;1.00;;
72575;SDS011;60613;48.658;2.328;2023-03-14T09:26:29;5.55;;;1.10;;
72575;SDS011;60613;48.658;2.328;2023-03-14T09:28:55;5.90;;;0.90;;
72575;SDS011;60613;48.658;2.328;2023-03-14T09:31:21;6.37;;;0.90;;
72575;SDS011;60613;48.658;2.328;2023-03-14T09:33:46;7.57;;;0.95;;
72575;SDS011;60613;48.658;2.328;2023-03-14T09:36:12;6.20;;;1.00;;
72575;SDS011;60613;48.658;2.328;2023-03-14T09:38:37;6.80;;;1.10;;
72575;SDS011;60613;48.658;2.328;2023-03-14T09:41:06;4.37;;;0.73;;
72575;SDS011;60613;48.658;2.328;2023-03-14T09:43:48;5.10;;;0.93;;
72575;SDS011;60613;48.658;2.328;2023-03-14T09:46:19;4.25;;;0.90;;
72575;SDS011;60613;48.658;2.328;2023-03-14T09:48:46;4.03;;;1.03;;
72575;SDS011;60613;48.658;2.328;2023-03-14T09:51:13;4.40;;;0.98;;
72575;SDS011;60613;48.658;2.328;2023-03-14T09:53:43;4.38;;;0.88;;
72575;SDS011;60613;48.658;2.328;2023-03-14T09:56:15;5.57;;;1.00;;
72575;SDS011;60613;48.658;2.328;2023-03-14T09:58:44;5.17;;;0.90;;
72575;SDS011;60613;48.658;2.328;2023-03-14T10:01:15;5.57;;;1.23;;
72575;SDS011;60613;48.658;2.328;2023-03-14T10:03:45;7.45;;;1.30;;
72575;SDS011;60613;48.658;2.328;2023-03-14T10:06:11;7.93;;;1.77;;
72575;SDS011;60613;48.658;2.328;2023-03-14T10:08:41;6.25;;;2.30;;
72575;SDS011;60613;48.658;2.328;2023-03-14T10:11:15;8.80;;;2.83;;
72575;SDS011;60613;48.658;2.328;2023-03-14T10:16:30;7.55;;;3.10;;
72575;SDS011;60613;48.658;2.328;2023-03-14T10:19:02;7.20;;;2.50;;
72575;SDS011;60613;48.658;2.328;2023-03-14T10:21:39;8.48;;;2.78;;
72575;SDS011;60613;48.658;2.328;2023-03-14T10:24:25;9.93;;;2.83;;
72575;SDS011;60613;48.658;2.328;2023-03-14T10:27:01;8.48;;;3.05;;
72575;SDS011;60613;48.658;2.328;2023-03-14T10:29:50;6.78;;;2.50;;
72575;SDS011;60613;48.658;2.328;2023-03-14T10:32:19;6.93;;;3.20;;
72575;SDS011;60613;48.658;2.328;2023-03-14T10:34:45;7.25;;;2.60;;
72575;SDS011;60613;48.658;2.328;2023-03-14T10:37:33;7.37;;;2.50;;
72575;SDS011;60613;48.658;2.328;2023-03-14T10:40:00;7.30;;;2.03;;
72575;SDS011;60613;48.658;2.328;2023-03-14T10:42:30;6.18;;;1.75;;
72575;SDS011;60613;48.658;2.328;2023-03-14T10:45:09;6.18;;;1.67;;
72575;SDS011;60613;48.658;2.328;2023-03-14T10:47:48;6.22;;;2.00;;
72575;SDS011;60613;48.658;2.328;2023-03-14T10:50:25;7.37;;;1.50;;
72575;SDS011;60613;48.658;2.328;2023-03-14T10:52:54;5.63;;;1.67;;
72575;SDS011;60613;48.658;2.328;2023-03-14T10:55:22;6.15;;;1.60;;
72575;SDS011;60613;48.658;2.328;2023-03-14T10:57:51;5.65;;;1.40;;
72575;SDS011;60613;48.658;2.328;2023-03-14T11:00:20;6.87;;;1.20;;
72575;SDS011;60613;48.658;2.328;2023-03-14T11:05:38;5.20;;;1.25;;
72575;SDS011;60613;48.658;2.328;2023-03-14T11:08:15;3.10;;;0.98;;
72575;SDS011;60613;48.658;2.328;2023-03-14T11:11:07;4.20;;;0.98;;
72575;SDS011;60613;48.658;2.328;2023-03-14T11:16:17;6.25;;;1.00;;
72575;SDS011;60613;48.658;2.328;2023-03-14T11:19:00;7.78;;;1.00;;
72575;SDS011;60613;48.658;2.328;2023-03-14T11:24:20;5.53;;;0.90;;
72575;SDS011;60613;48.658;2.328;2023-03-14T11:26:59;4.05;;;0.90;;
72575;SDS011;60613;48.658;2.328;2023-03-14T11:35:04;4.80;;;0.77;;
72575;SDS011;60613;48.658;2.328;2023-03-14T11:38:05;5.83;;;0.73;;
72575;SDS011;60613;48.658;2.328;2023-03-14T11:40:49;3.42;;;0.60;;
72575;SDS011;60613;48.658;2.328;2023-03-14T11:43:18;4.60;;;0.80;;
72575;SDS011;60613;48.658;2.328;2023-03-14T11:45:49;4.95;;;0.70;;
72575;SDS011;60613;48.658;2.328;2023-03-14T11:48:18;4.13;;;0.65;;
72575;SDS011;60613;48.658;2.328;2023-03-14T11:51:09;4.17;;;0.80;;
72575;SDS011;60613;48.658;2.328;2023-03-14T11:56:50;4.75;;;0.88;;
72575;SDS011;60613;48.658;2.328;2023-03-14T12:07:34;5.32;;;0.82;;
72575;SDS011;60613;48.658;2.328;2023-03-14T12:10:15;2.55;;;0.63;;
72575;SDS011;60613;48.658;2.328;2023-03-14T12:12:41;3.90;;;0.87;;
72575;SDS011;60613;48.658;2.328;2023-03-14T12:15:15;3.05;;;0.65;;
72575;SDS011;60613;48.658;2.328;2023-03-14T12:17:47;4.20;;;0.73;;
72575;SDS011;60613;48.658;2.328;2023-03-14T12:20:24;6.05;;;1.00;;
72575;SDS011;60613;48.658;2.328;2023-03-14T12:22:52;5.38;;;0.90;;
72575;SDS011;60613;48.658;2.328;2023-03-14T12:25:24;4.23;;;0.60;;
72575;SDS011;60613;48.658;2.328;2023-03-14T12:30:25;3.03;;;0.50;;
72575;SDS011;60613;48.658;2.328;2023-03-14T12:35:53;5.22;;;0.82;;
72575;SDS011;60613;48.658;2.328;2023-03-14T12:43:40;4.07;;;0.63;;
72575;SDS011;60613;48.658;2.328;2023-03-14T12:48:38;3.97;;;0.68;;
72575;SDS011;60613;48.658;2.328;2023-03-14T12:51:12;5.33;;;0.80;;
72575;SDS011;60613;48.658;2.328;2023-03-14T13:01:47;5.78;;;0.85;;
72575;SDS011;60613;48.658;2.328;2023-03-14T13:04:19;3.57;;;0.70;;
72575;SDS011;60613;48.658;2.328;2023-03-14T13:06:57;2.20;;;0.50;;
72575;SDS011;60613;48.658;2.328;2023-03-14T13:11:53;5.18;;;0.70;;
72575;SDS011;60613;48.658;2.328;2023-03-14T13:14:19;4.00;;;0.60;;
72575;SDS011;60613;48.658;2.328;2023-03-14T13:16:46;5.17;;;0.90;;
72575;SDS011;60613;48.658;2.328;2023-03-14T13:19:24;3.65;;;0.70;;
72575;SDS011;60613;48.658;2.328;2023-03-14T13:21:55;4.10;;;0.70;;
72575;SDS011;60613;48.658;2.328;2023-03-14T13:24:25;3.78;;;0.80;;
72575;SDS011;60613;48.658;2.328;2023-03-14T13:26:53;4.10;;;0.93;;
72575;SDS011;60613;48.658;2.328;2023-03-14T13:29:23;3.53;;;0.70;;
72575;SDS011;60613;48.658;2.328;2023-03-14T13:31:58;4.72;;;0.60;;
72575;SDS011;60613;48.658;2.328;2023-03-14T13:34:26;3.10;;;0.70;;
72575;SDS011;60613;48.658;2.328;2023-03-14T13:36:54;5.13;;;0.90;;
72575;SDS011;60613;48.658;2.328;2023-03-14T13:39:21;4.15;;;0.60;;
72575;SDS011;60613;48.658;2.328;2023-03-14T13:41:53;4.13;;;0.77;;
72575;SDS011;60613;48.658;2.328;2023-03-14T13:44:38;3.95;;;0.70;;
72575;SDS011;60613;48.658;2.328;2023-03-14T13:47:05;3.97;;;0.60;;
72575;SDS011;60613;48.658;2.328;2023-03-14T13:49:38;3.13;;;0.63;;
72575;SDS011;60613;48.658;2.328;2023-03-14T13:52:20;4.32;;;0.70;;
72575;SDS011;60613;48.658;2.328;2023-03-14T13:55:03;4.13;;;0.80;;
72575;SDS011;60613;48.658;2.328;2023-03-14T13:57:43;5.20;;;0.70;;
72575;SDS011;60613;48.658;2.328;2023-03-14T14:00:27;2.88;;;0.70;;
72575;SDS011;60613;48.658;2.328;2023-03-14T14:02:54;3.80;;;0.60;;
72575;SDS011;60613;48.658;2.328;2023-03-14T14:05:22;3.75;;;0.60;;
72575;SDS011;60613;48.658;2.328;2023-03-14T14:07:51;3.67;;;0.70;;
72575;SDS011;60613;48.658;2.328;2023-03-14T14:10:17;3.17;;;0.60;;
72575;SDS011;60613;48.658;2.328;2023-03-14T14:15:28;3.35;;;0.70;;
72575;SDS011;60613;48.658;2.328;2023-03-14T14:17:58;1.60;;;0.40;;
72575;SDS011;60613;48.658;2.328;2023-03-14T14:20:30;3.22;;;0.50;;
72575;SDS011;60613;48.658;2.328;2023-03-14T14:23:03;2.50;;;0.50;;
72575;SDS011;60613;48.658;2.328;2023-03-14T14:25:30;2.47;;;0.50;;
72575;SDS011;60613;48.658;2.328;2023-03-14T14:27:56;3.65;;;0.60;;
72575;SDS011;60613;48.658;2.328;2023-03-14T14:30:27;2.67;;;0.60;;
72575;SDS011;60613;48.658;2.328;2023-03-14T14:33:10;2.97;;;0.52;;
72575;SDS011;60613;48.658;2.328;2023-03-14T14:35:50;2.67;;;0.57;;
72575;SDS011;60613;48.658;2.328;2023-03-14T14:38:24;1.73;;;0.40;;
72575;SDS011;60613;48.658;2.328;2023-03-14T14:40:54;1.83;;;0.50;;
72575;SDS011;60613;48.658;2.328;2023-03-14T14:43:25;3.17;;;0.47;;
72575;SDS011;60613;48.658;2.328;2023-03-14T14:45:54;2.53;;;0.40;;
72575;SDS011;60613;48.658;2.328;2023-03-14T14:48:24;3.65;;;0.52;;
72575;SDS011;60613;48.658;2.328;2023-03-14T14:50:56;2.55;;;0.68;;
72575;SDS011;60613;48.658;2.328;2023-03-14T14:56:13;2.43;;;0.40;;
72575;SDS011;60613;48.658;2.328;2023-03-14T14:58:43;2.75;;;0.60;;
72575;SDS011;60613;48.658;2.328;2023-03-14T15:03:41;2.15;;;0.40;;
72575;SDS011;60613;48.658;2.328;2023-03-14T15:06:08;2.42;;;0.50;;
72575;SDS011;60613;48.658;2.328;2023-03-14T15:08:37;2.67;;;0.50;;
72575;SDS011;60613;48.658;2.328;2023-03-14T15:11:02;2.75;;;0.45;;
72575;SDS011;60613;48.658;2.328;2023-03-14T15:13:28;2.30;;;0.50;;
72575;SDS011;60613;48.658;2.328;2023-03-14T15:15:54;2.67;;;0.50;;
72575;SDS011;60613;48.658;2.328;2023-03-14T15:18:24;2.30;;;0.50;;
72575;SDS011;60613;48.658;2.328;2023-03-14T15:20:53;1.95;;;0.50;;
72575;SDS011;60613;48.658;2.328;2023-03-14T15:23:19;2.90;;;0.57;;
72575;SDS011;60613;48.658;2.328;2023-03-14T15:25:46;2.72;;;0.60;;
72575;SDS011;60613;48.658;2.328;2023-03-14T15:28:14;1.98;;;0.40;;
72575;SDS011;60613;48.658;2.328;2023-03-14T15:30:41;2.42;;;0.50;;
72575;SDS011;60613;48.658;2.328;2023-03-14T15:33:06;1.60;;;0.47;;
72575;SDS011;60613;48.658;2.328;2023-03-14T15:35:33;2.28;;;0.40;;
72575;SDS011;60613;48.658;2.328;2023-03-14T15:38:01;2.53;;;0.57;;
72575;SDS011;60613;48.658;2.328;2023-03-14T15:40:26;2.20;;;0.50;;
72575;SDS011;60613;48.658;2.328;2023-03-14T15:42:52;2.28;;;0.60;;
72575;SDS011;60613;48.658;2.328;2023-03-14T15:45:18;2.23;;;0.50;;
72575;SDS011;60613;48.658;2.328;2023-03-14T15:47:43;2.25;;;0.40;;
72575;SDS011;60613;48.658;2.328;2023-03-14T15:50:09;2.17;;;0.47;;
72575;SDS011;60613;48.658;2.328;2023-03-14T15:52:35;2.60;;;0.50;;
72575;SDS011;60613;48.658;2.328;2023-03-14T15:55:01;2.00;;;0.45;;
72575;SDS011;60613;48.658;2.328;2023-03-14T15:57:28;3.95;;;0.60;;
72575;SDS011;60613;48.658;2.328;2023-03-14T15:59:53;2.47;;;0.40;;
72575;SDS011;60613;48.658;2.328;2023-03-14T16:02:19;1.90;;;0.43;;
72575;SDS011;60613;48.658;2.328;2023-03-14T16:04:45;2.83;;;0.50;;
72575;SDS011;60613;48.658;2.328;2023-03-14T16:07:10;2.28;;;0.43;;
72575;SDS011;60613;48.658;2.328;2023-03-14T16:09:36;3.43;;;0.50;;
72575;SDS011;60613;48.658;2.328;2023-03-14T16:12:01;1.80;;;0.50;;
72575;SDS011;60613;48.658;2.328;2023-03-14T16:14:29;1.83;;;0.50;;
72575;SDS011;60613;48.658;2.328;2023-03-14T16:16:55;3.13;;;0.55;;
72575;SDS011;60613;48.658;2.328;2023-03-14T16:19:23;4.05;;;0.50;;
72575;SDS011;60613;48.658;2.328;2023-03-14T16:21:51;2.25;;;0.60;;
72575;SDS011;60613;48.658;2.328;2023-03-14T16:24:17;2.03;;;0.47;;
72575;SDS011;60613;48.658;2.328;2023-03-14T16:26:42;3.30;;;0.60;;
72575;SDS011;60613;48.658;2.328;2023-03-14T16:29:09;2.15;;;0.50;;
72575;SDS011;60613;48.658;2.328;2023-03-14T16:31:34;2.43;;;0.50;;
72575;SDS011;60613;48.658;2.328;2023-03-14T16:34:06;2.10;;;0.50;;
72575;SDS011;60613;48.658;2.328;2023-03-14T16:36:35;3.22;;;0.43;;
72575;SDS011;60613;48.658;2.328;2023-03-14T16:39:02;2.03;;;0.60;;
72575;SDS011;60613;48.658;2.328;2023-03-14T16:41:28;2.80;;;0.70;;
72575;SDS011;60613;48.658;2.328;2023-03-14T16:43:58;3.47;;;0.50;;
72575;SDS011;60613;48.658;2.328;2023-03-14T16:46:25;3.08;;;0.50;;
72575;SDS011;60613;48.658;2.328;2023-03-14T16:48:52;2.10;;;0.60;;
72575;SDS011;60613;48.658;2.328;2023-03-14T16:51:18;3.70;;;0.60;;
72575;SDS011;60613;48.658;2.328;2023-03-14T16:53:44;4.65;;;0.80;;
72575;SDS011;60613;48.658;2.328;2023-03-14T16:56:10;3.25;;;0.50;;
72575;SDS011;60613;48.658;2.328;2023-03-14T16:58:37;2.38;;;0.70;;
72575;SDS011;60613;48.658;2.328;2023-03-14T17:01:04;3.57;;;0.70;;
72575;SDS011;60613;48.658;2.328;2023-03-14T17:03:44;2.47;;;0.60;;
72575;SDS011;60613;48.658;2.328;2023-03-14T17:06:12;4.35;;;0.52;;
72575;SDS011;60613;48.658;2.328;2023-03-14T17:08:39;1.38;;;0.50;;
72575;SDS011;60613;48.658;2.328;2023-03-14T17:11:05;4.93;;;0.60;;
72575;SDS011;60613;48.658;2.328;2023-03-14T17:13:32;3.00;;;0.60;;
72575;SDS011;60613;48.658;2.328;2023-03-14T17:15:58;2.72;;;0.55;;
72575;SDS011;60613;48.658;2.328;2023-03-14T17:18:25;2.45;;;0.60;;
72575;SDS011;60613;48.658;2.328;2023-03-14T17:20:52;2.78;;;0.70;;
72575;SDS011;60613;48.658;2.328;2023-03-14T17:23:19;1.45;;;0.50;;
72575;SDS011;60613;48.658;2.328;2023-03-14T17:25:46;2.73;;;0.60;;
72575;SDS011;60613;48.658;2.328;2023-03-14T17:28:12;2.70;;;0.60;;
72575;SDS011;60613;48.658;2.328;2023-03-14T17:30:38;2.45;;;0.60;;
72575;SDS011;60613;48.658;2.328;2023-03-14T17:33:03;3.23;;;0.70;;
72575;SDS011;60613;48.658;2.328;2023-03-14T17:35:30;4.63;;;0.80;;
72575;SDS011;60613;48.658;2.328;2023-03-14T17:37:55;1.90;;;0.60;;
72575;SDS011;60613;48.658;2.328;2023-03-14T17:40:21;3.47;;;0.80;;
72575;SDS011;60613;48.658;2.328;2023-03-14T17:42:47;3.20;;;0.70;;
72575;SDS011;60613;48.658;2.328;2023-03-14T17:45:12;25.77;;;5.03;;
72575;SDS011;60613;48.658;2.328;2023-03-14T17:47:38;28.45;;;6.95;;
72575;SDS011;60613;48.658;2.328;2023-03-14T17:50:04;16.30;;;3.80;;
72575;SDS011;60613;48.658;2.328;2023-03-14T17:52:33;16.45;;;4.15;;
72575;SDS011;60613;48.658;2.328;2023-03-14T17:55:00;15.95;;;4.32;;
72575;SDS011;60613;48.658;2.328;2023-03-14T17:57:26;15.38;;;4.22;;
72575;SDS011;60613;48.658;2.328;2023-03-14T17:59:52;14.90;;;4.80;;
72575;SDS011;60613;48.658;2.328;2023-03-14T18:02:18;15.57;;;4.90;;
72575;SDS011;60613;48.658;2.328;2023-03-14T18:04:44;16.17;;;6.43;;
72575;SDS011;60613;48.658;2.328;2023-03-14T18:07:11;11.70;;;5.03;;
72575;SDS011;60613;48.658;2.328;2023-03-14T18:09:38;10.18;;;3.97;;
72575;SDS011;60613;48.658;2.328;2023-03-14T18:12:04;10.70;;;3.60;;
72575;SDS011;60613;48.658;2.328;2023-03-14T18:14:30;13.23;;;4.20;;
72575;SDS011;60613;48.658;2.328;2023-03-14T18:16:55;10.70;;;3.63;;
72575;SDS011;60613;48.658;2.328;2023-03-14T18:19:21;9.43;;;2.92;;
72575;SDS011;60613;48.658;2.328;2023-03-14T18:21:48;8.35;;;2.67;;
72575;SDS011;60613;48.658;2.328;2023-03-14T18:24:15;8.40;;;2.90;;
72575;SDS011;60613;48.658;2.328;2023-03-14T18:26:42;9.37;;;2.87;;
72575;SDS011;60613;48.658;2.328;2023-03-14T18:29:08;7.38;;;2.67;;
72575;SDS011;60613;48.658;2.328;2023-03-14T18:31:38;7.55;;;2.60;;
72575;SDS011;60613;48.658;2.328;2023-03-14T18:34:07;7.72;;;2.60;;
72575;SDS011;60613;48.658;2.328;2023-03-14T18:36:34;6.33;;;2.17;;
72575;SDS011;60613;48.658;2.328;2023-03-14T18:39:00;6.80;;;2.33;;
72575;SDS011;60613;48.658;2.328;2023-03-14T18:41:26;6.80;;;2.10;;
72575;SDS011;60613;48.658;2.328;2023-03-14T18:43:51;7.30;;;2.30;;
72575;SDS011;60613;48.658;2.328;2023-03-14T18:46:18;7.15;;;2.10;;
72575;SDS011;60613;48.658;2.328;2023-03-14T18:48:45;5.82;;;2.08;;
72575;SDS011;60613;48.658;2.328;2023-03-14T18:51:12;7.18;;;2.20;;
72575;SDS011;60613;48.658;2.328;2023-03-14T18:53:40;6.40;;;1.98;;
72575;SDS011;60613;48.658;2.328;2023-03-14T18:56:06;5.80;;;1.90;;
72575;SDS011;60613;48.658;2.328;2023-03-14T18:58:32;7.43;;;1.92;;
72575;SDS011;60613;48.658;2.328;2023-03-14T19:00:59;6.13;;;1.98;;
72575;SDS011;60613;48.658;2.328;2023-03-14T19:03:26;6.05;;;1.83;;
72575;SDS011;60613;48.658;2.328;2023-03-14T19:05:53;6.28;;;2.00;;
72575;SDS011;60613;48.658;2.328;2023-03-14T19:08:19;5.20;;;1.67;;
72575;SDS011;60613;48.658;2.328;2023-03-14T19:10:56;6.47;;;2.08;;
72575;SDS011;60613;48.658;2.328;2023-03-14T19:13:24;6.45;;;1.98;;
72575;SDS011;60613;48.658;2.328;2023-03-14T19:15:51;6.53;;;2.08;;
72575;SDS011;60613;48.658;2.328;2023-03-14T19:18:17;6.87;;;2.17;;
72575;SDS011;60613;48.658;2.328;2023-03-14T19:20:43;5.90;;;2.05;;
72575;SDS011;60613;48.658;2.328;2023-03-14T19:23:11;5.55;;;2.05;;
72575;SDS011;60613;48.658;2.328;2023-03-14T19:25:39;5.15;;;1.90;;
72575;SDS011;60613;48.658;2.328;2023-03-14T19:28:09;5.80;;;1.80;;
72575;SDS011;60613;48.658;2.328;2023-03-14T19:30:34;5.87;;;2.00;;
72575;SDS011;60613;48.658;2.328;2023-03-14T19:33:00;6.43;;;2.03;;
72575;SDS011;60613;48.658;2.328;2023-03-14T19:35:26;8.13;;;2.37;;
72575;SDS011;60613;48.658;2.328;2023-03-14T19:37:51;6.18;;;2.40;;
72575;SDS011;60613;48.658;2.328;2023-03-14T19:40:17;6.80;;;2.27;;
72575;SDS011;60613;48.658;2.328;2023-03-14T19:42:43;6.65;;;2.13;;
72575;SDS011;60613;48.658;2.328;2023-03-14T19:45:09;5.93;;;2.30;;
72575;SDS011;60613;48.658;2.328;2023-03-14T19:47:35;5.30;;;1.95;;
72575;SDS011;60613;48.658;2.328;2023-03-14T19:50:01;7.35;;;2.28;;
72575;SDS011;60613;48.658;2.328;2023-03-14T19:52:27;7.10;;;1.97;;
72575;SDS011;60613;48.658;2.328;2023-03-14T19:54:53;6.05;;;2.20;;
72575;SDS011;60613;48.658;2.328;2023-03-14T19:57:18;5.90;;;2.00;;
72575;SDS011;60613;48.658;2.328;2023-03-14T19:59:45;6.00;;;1.90;;
